sensor_id;sensor_type;location;lat;lon;timestamp;P1;durP1;ratioP1;P2;durP2;ratioP2
68293;SDS011;55122;51.660;5.824;2022-07-29T00:03:47;2.2;;;1.0;;
68293;SDS011;55122;51.660;5.824;2022-07-29T00:08:47;3.1;;;1.0;;
68293;SDS011;55122;51.660;5.824;2022-07-29T00:13:47;3.3;;;1.2;;
68293;SDS011;55122;51.660;5.824;2022-07-29T00:18:47;2.8;;;0.9;;
68293;SDS011;55122;51.660;5.824;2022-07-29T00:23:47;3.9;;;1.1;;
68293;SDS011;55122;51.660;5.824;2022-07-29T00:28:47;2.9;;;1.0;;
68293;SDS011;55122;51.660;5.824;2022-07-29T00:33:47;3.5;;;1.1;;
68293;SDS011;55122;51.660;5.824;2022-07-29T00:38:48;2.7;;;1.0;;
68293;SDS011;55122;51.660;5.824;2022-07-29T00:43:48;3.0;;;1.1;;
68293;SDS011;55122;51.660;5.824;2022-07-29T00:48:47;3.3;;;1.1;;
68293;SDS011;55122;51.660;5.824;2022-07-29T00:53:47;2.8;;;0.9;;
68293;SDS011;55122;51.660;5.824;2022-07-29T00:58:47;3.2;;;0.9;;
68293;SDS011;55122;51.660;5.824;2022-07-29T01:03:47;4.4;;;0.9;;
68293;SDS011;55122;51.660;5.824;2022-07-29T01:08:47;3.2;;;0.9;;
68293;SDS011;55122;51.660;5.824;2022-07-29T01:13:47;3.4;;;0.9;;
68293;SDS011;55122;51.660;5.824;2022-07-29T01:18:48;3.1;;;1.0;;
68293;SDS011;55122;51.660;5.824;2022-07-29T01:25:12;4.0;;;1.1;;
68293;SDS011;55122;51.660;5.824;2022-07-29T01:30:04;3.0;;;1.0;;
68293;SDS011;55122;51.660;5.824;2022-07-29T01:33:57;5.5;;;1.3;;
68293;SDS011;55122;51.660;5.824;2022-07-29T01:38:50;3.1;;;1.2;;
68293;SDS011;55122;51.660;5.824;2022-07-29T01:43:49;3.5;;;1.2;;
68293;SDS011;55122;51.660;5.824;2022-07-29T01:48:52;4.7;;;1.2;;
68293;SDS011;55122;51.660;5.824;2022-07-29T01:53:50;3.9;;;1.3;;
68293;SDS011;55122;51.660;5.824;2022-07-29T01:58:50;4.0;;;1.2;;
68293;SDS011;55122;51.660;5.824;2022-07-29T02:03:47;3.2;;;1.1;;
68293;SDS011;55122;51.660;5.824;2022-07-29T02:08:48;3.2;;;1.1;;
68293;SDS011;55122;51.660;5.824;2022-07-29T02:13:48;2.6;;;0.9;;
68293;SDS011;55122;51.660;5.824;2022-07-29T02:18:48;3.2;;;0.9;;
68293;SDS011;55122;51.660;5.824;2022-07-29T02:23:48;5.6;;;1.3;;
68293;SDS011;55122;51.660;5.824;2022-07-29T02:28:48;6.0;;;1.3;;
68293;SDS011;55122;51.660;5.824;2022-07-29T02:33:48;2.1;;;1.1;;
68293;SDS011;55122;51.660;5.824;2022-07-29T02:38:48;4.1;;;1.1;;
68293;SDS011;55122;51.660;5.824;2022-07-29T02:43:48;4.1;;;1.1;;
68293;SDS011;55122;51.660;5.824;2022-07-29T02:48:57;4.4;;;1.4;;
68293;SDS011;55122;51.660;5.824;2022-07-29T02:53:51;3.8;;;1.2;;
68293;SDS011;55122;51.660;5.824;2022-07-29T02:58:53;2.7;;;1.2;;
68293;SDS011;55122;51.660;5.824;2022-07-29T03:03:53;3.3;;;1.1;;
68293;SDS011;55122;51.660;5.824;2022-07-29T03:08:48;6.1;;;1.0;;
68293;SDS011;55122;51.660;5.824;2022-07-29T03:13:48;3.2;;;1.1;;
68293;SDS011;55122;51.660;5.824;2022-07-29T03:18:48;4.2;;;1.1;;
68293;SDS011;55122;51.660;5.824;2022-07-29T03:23:48;2.8;;;1.2;;
68293;SDS011;55122;51.660;5.824;2022-07-29T03:28:48;5.0;;;1.1;;
68293;SDS011;55122;51.660;5.824;2022-07-29T03:33:48;1.9;;;1.1;;
68293;SDS011;55122;51.660;5.824;2022-07-29T03:38:49;3.0;;;0.9;;
68293;SDS011;55122;51.660;5.824;2022-07-29T03:43:48;3.3;;;1.1;;
68293;SDS011;55122;51.660;5.824;2022-07-29T03:48:52;4.3;;;1.1;;
68293;SDS011;55122;51.660;5.824;2022-07-29T03:53:48;3.1;;;1.1;;
68293;SDS011;55122;51.660;5.824;2022-07-29T03:58:48;2.8;;;1.1;;
68293;SDS011;55122;51.660;5.824;2022-07-29T04:03:48;3.0;;;1.1;;
68293;SDS011;55122;51.660;5.824;2022-07-29T04:08:48;2.7;;;0.9;;
68293;SDS011;55122;51.660;5.824;2022-07-29T04:13:48;2.4;;;0.9;;
68293;SDS011;55122;51.660;5.824;2022-07-29T04:18:48;1.9;;;1.0;;
68293;SDS011;55122;51.660;5.824;2022-07-29T04:23:48;2.9;;;1.1;;
68293;SDS011;55122;51.660;5.824;2022-07-29T04:28:48;3.0;;;1.0;;
68293;SDS011;55122;51.660;5.824;2022-07-29T04:33:48;1.8;;;1.0;;
68293;SDS011;55122;51.660;5.824;2022-07-29T04:38:48;2.0;;;1.2;;
68293;SDS011;55122;51.660;5.824;2022-07-29T04:43:48;2.1;;;1.1;;
68293;SDS011;55122;51.660;5.824;2022-07-29T04:48:48;3.0;;;1.1;;
68293;SDS011;55122;51.660;5.824;2022-07-29T04:53:48;5.0;;;1.3;;
68293;SDS011;55122;51.660;5.824;2022-07-29T04:58:48;2.9;;;1.2;;
68293;SDS011;55122;51.660;5.824;2022-07-29T05:03:48;3.9;;;1.3;;
68293;SDS011;55122;51.660;5.824;2022-07-29T05:08:48;4.7;;;1.4;;
68293;SDS011;55122;51.660;5.824;2022-07-29T05:13:48;3.4;;;1.7;;
68293;SDS011;55122;51.660;5.824;2022-07-29T05:18:48;2.4;;;1.2;;
68293;SDS011;55122;51.660;5.824;2022-07-29T05:23:48;2.1;;;1.2;;
68293;SDS011;55122;51.660;5.824;2022-07-29T05:28:48;2.5;;;1.2;;
68293;SDS011;55122;51.660;5.824;2022-07-29T05:33:48;3.2;;;1.3;;
68293;SDS011;55122;51.660;5.824;2022-07-29T05:38:48;2.6;;;1.3;;
68293;SDS011;55122;51.660;5.824;2022-07-29T05:43:48;2.7;;;1.4;;
68293;SDS011;55122;51.660;5.824;2022-07-29T05:48:48;2.6;;;1.1;;
68293;SDS011;55122;51.660;5.824;2022-07-29T05:53:48;3.8;;;1.4;;
68293;SDS011;55122;51.660;5.824;2022-07-29T05:58:48;3.6;;;1.5;;
68293;SDS011;55122;51.660;5.824;2022-07-29T06:03:48;2.6;;;1.4;;
68293;SDS011;55122;51.660;5.824;2022-07-29T06:08:48;1.9;;;1.3;;
68293;SDS011;55122;51.660;5.824;2022-07-29T06:13:48;2.8;;;1.4;;
68293;SDS011;55122;51.660;5.824;2022-07-29T06:18:48;3.3;;;1.3;;
68293;SDS011;55122;51.660;5.824;2022-07-29T06:23:48;3.2;;;1.5;;
68293;SDS011;55122;51.660;5.824;2022-07-29T06:28:48;3.8;;;1.3;;
68293;SDS011;55122;51.660;5.824;2022-07-29T06:33:48;3.0;;;1.4;;
68293;SDS011;55122;51.660;5.824;2022-07-29T06:38:48;3.4;;;1.3;;
68293;SDS011;55122;51.660;5.824;2022-07-29T06:43:48;5.2;;;1.5;;
68293;SDS011;55122;51.660;5.824;2022-07-29T06:48:49;2.6;;;1.2;;
68293;SDS011;55122;51.660;5.824;2022-07-29T06:53:48;2.8;;;1.1;;
68293;SDS011;55122;51.660;5.824;2022-07-29T06:58:48;3.4;;;1.4;;
68293;SDS011;55122;51.660;5.824;2022-07-29T07:03:48;2.6;;;1.2;;
68293;SDS011;55122;51.660;5.824;2022-07-29T07:08:48;2.7;;;1.2;;
68293;SDS011;55122;51.660;5.824;2022-07-29T07:13:48;3.7;;;1.4;;
68293;SDS011;55122;51.660;5.824;2022-07-29T07:18:48;4.8;;;1.4;;
68293;SDS011;55122;51.660;5.824;2022-07-29T07:23:48;3.2;;;1.3;;
68293;SDS011;55122;51.660;5.824;2022-07-29T07:28:48;3.2;;;1.3;;
68293;SDS011;55122;51.660;5.824;2022-07-29T07:33:48;2.1;;;1.3;;
68293;SDS011;55122;51.660;5.824;2022-07-29T07:38:48;3.2;;;1.2;;
68293;SDS011;55122;51.660;5.824;2022-07-29T07:43:48;1.9;;;1.2;;
68293;SDS011;55122;51.660;5.824;2022-07-29T07:48:48;4.3;;;1.3;;
68293;SDS011;55122;51.660;5.824;2022-07-29T07:53:48;2.1;;;1.0;;
68293;SDS011;55122;51.660;5.824;2022-07-29T07:58:48;2.9;;;1.2;;
68293;SDS011;55122;51.660;5.824;2022-07-29T08:03:48;2.3;;;1.1;;
68293;SDS011;55122;51.660;5.824;2022-07-29T08:08:48;4.7;;;1.1;;
68293;SDS011;55122;51.660;5.824;2022-07-29T08:13:48;2.9;;;1.3;;
68293;SDS011;55122;51.660;5.824;2022-07-29T08:18:48;2.3;;;1.0;;
68293;SDS011;55122;51.660;5.824;2022-07-29T08:23:48;4.6;;;1.2;;
68293;SDS011;55122;51.660;5.824;2022-07-29T08:28:48;3.1;;;1.1;;
68293;SDS011;55122;51.660;5.824;2022-07-29T08:33:48;5.4;;;1.3;;
68293;SDS011;55122;51.660;5.824;2022-07-29T08:38:48;2.4;;;0.9;;
68293;SDS011;55122;51.660;5.824;2022-07-29T08:43:49;3.3;;;1.2;;
68293;SDS011;55122;51.660;5.824;2022-07-29T08:48:48;3.6;;;1.2;;
68293;SDS011;55122;51.660;5.824;2022-07-29T08:53:49;3.8;;;1.3;;
68293;SDS011;55122;51.660;5.824;2022-07-29T08:58:49;4.2;;;1.5;;
68293;SDS011;55122;51.660;5.824;2022-07-29T09:03:48;2.5;;;1.0;;
68293;SDS011;55122;51.660;5.824;2022-07-29T09:08:48;2.2;;;1.0;;
68293;SDS011;55122;51.660;5.824;2022-07-29T09:13:48;2.9;;;1.2;;
68293;SDS011;55122;51.660;5.824;2022-07-29T09:18:48;2.5;;;1.1;;
68293;SDS011;55122;51.660;5.824;2022-07-29T09:24:05;3.1;;;1.1;;
68293;SDS011;55122;51.660;5.824;2022-07-29T09:28:48;2.9;;;1.2;;
68293;SDS011;55122;51.660;5.824;2022-07-29T09:33:48;5.5;;;1.4;;
68293;SDS011;55122;51.660;5.824;2022-07-29T09:38:56;6.1;;;1.4;;
68293;SDS011;55122;51.660;5.824;2022-07-29T09:43:52;3.5;;;1.2;;
68293;SDS011;55122;51.660;5.824;2022-07-29T09:49:07;2.3;;;1.2;;
68293;SDS011;55122;51.660;5.824;2022-07-29T09:53:48;3.7;;;1.2;;
68293;SDS011;55122;51.660;5.824;2022-07-29T09:58:50;8.4;;;1.8;;
68293;SDS011;55122;51.660;5.824;2022-07-29T10:03:51;4.1;;;1.3;;
68293;SDS011;55122;51.660;5.824;2022-07-29T10:08:48;5.0;;;1.3;;
68293;SDS011;55122;51.660;5.824;2022-07-29T10:13:48;10.1;;;1.4;;
68293;SDS011;55122;51.660;5.824;2022-07-29T10:18:48;3.6;;;1.3;;
68293;SDS011;55122;51.660;5.824;2022-07-29T10:23:48;4.2;;;1.2;;
68293;SDS011;55122;51.660;5.824;2022-07-29T10:28:49;6.4;;;1.3;;
68293;SDS011;55122;51.660;5.824;2022-07-29T10:34:55;3.9;;;1.4;;
68293;SDS011;55122;51.660;5.824;2022-07-29T10:40:54;3.0;;;1.3;;
68293;SDS011;55122;51.660;5.824;2022-07-29T10:43:48;5.3;;;1.4;;
68293;SDS011;55122;51.660;5.824;2022-07-29T10:49:07;3.9;;;1.2;;
68293;SDS011;55122;51.660;5.824;2022-07-29T10:53:54;4.1;;;1.3;;
68293;SDS011;55122;51.660;5.824;2022-07-29T10:58:57;3.1;;;1.3;;
68293;SDS011;55122;51.660;5.824;2022-07-29T11:03:48;4.1;;;1.4;;
68293;SDS011;55122;51.660;5.824;2022-07-29T11:09:16;3.3;;;1.2;;
68293;SDS011;55122;51.660;5.824;2022-07-29T11:13:50;3.1;;;1.2;;
68293;SDS011;55122;51.660;5.824;2022-07-29T11:19:19;2.3;;;1.0;;
68293;SDS011;55122;51.660;5.824;2022-07-29T11:23:49;2.7;;;1.4;;
68293;SDS011;55122;51.660;5.824;2022-07-29T11:28:50;4.0;;;1.2;;
68293;SDS011;55122;51.660;5.824;2022-07-29T11:33:49;3.2;;;1.2;;
68293;SDS011;55122;51.660;5.824;2022-07-29T11:38:49;7.1;;;1.6;;
68293;SDS011;55122;51.660;5.824;2022-07-29T11:43:49;2.7;;;1.4;;
68293;SDS011;55122;51.660;5.824;2022-07-29T11:48:49;5.1;;;1.6;;
68293;SDS011;55122;51.660;5.824;2022-07-29T11:53:49;2.9;;;1.4;;
68293;SDS011;55122;51.660;5.824;2022-07-29T11:58:49;5.1;;;1.3;;
68293;SDS011;55122;51.660;5.824;2022-07-29T12:03:49;4.2;;;1.3;;
68293;SDS011;55122;51.660;5.824;2022-07-29T12:08:49;3.9;;;1.3;;
68293;SDS011;55122;51.660;5.824;2022-07-29T12:13:49;3.7;;;1.4;;
68293;SDS011;55122;51.660;5.824;2022-07-29T12:18:57;5.4;;;1.3;;
68293;SDS011;55122;51.660;5.824;2022-07-29T12:23:54;4.4;;;1.1;;
68293;SDS011;55122;51.660;5.824;2022-07-29T12:28:49;4.1;;;1.4;;
68293;SDS011;55122;51.660;5.824;2022-07-29T12:33:51;3.1;;;1.3;;
68293;SDS011;55122;51.660;5.824;2022-07-29T12:38:49;4.9;;;1.4;;
68293;SDS011;55122;51.660;5.824;2022-07-29T12:43:54;4.1;;;1.3;;
68293;SDS011;55122;51.660;5.824;2022-07-29T12:48:53;2.9;;;1.3;;
68293;SDS011;55122;51.660;5.824;2022-07-29T12:54:04;3.3;;;1.3;;
68293;SDS011;55122;51.660;5.824;2022-07-29T12:58:49;2.5;;;1.2;;
68293;SDS011;55122;51.660;5.824;2022-07-29T13:03:52;2.8;;;1.3;;
68293;SDS011;55122;51.660;5.824;2022-07-29T13:08:58;2.4;;;1.1;;
68293;SDS011;55122;51.660;5.824;2022-07-29T13:13:50;4.9;;;1.5;;
68293;SDS011;55122;51.660;5.824;2022-07-29T13:18:54;2.9;;;1.5;;
68293;SDS011;55122;51.660;5.824;2022-07-29T13:23:49;3.0;;;1.3;;
68293;SDS011;55122;51.660;5.824;2022-07-29T13:28:49;3.3;;;1.4;;
68293;SDS011;55122;51.660;5.824;2022-07-29T13:33:49;3.8;;;1.3;;
68293;SDS011;55122;51.660;5.824;2022-07-29T13:38:49;4.2;;;1.4;;
68293;SDS011;55122;51.660;5.824;2022-07-29T13:43:49;2.3;;;1.4;;
68293;SDS011;55122;51.660;5.824;2022-07-29T13:48:49;3.1;;;1.4;;
68293;SDS011;55122;51.660;5.824;2022-07-29T13:53:49;3.2;;;1.3;;
68293;SDS011;55122;51.660;5.824;2022-07-29T13:58:49;3.2;;;1.2;;
68293;SDS011;55122;51.660;5.824;2022-07-29T14:03:49;2.4;;;1.3;;
68293;SDS011;55122;51.660;5.824;2022-07-29T14:08:49;2.9;;;1.3;;
68293;SDS011;55122;51.660;5.824;2022-07-29T14:13:49;2.6;;;1.2;;
68293;SDS011;55122;51.660;5.824;2022-07-29T14:18:49;3.2;;;1.2;;
68293;SDS011;55122;51.660;5.824;2022-07-29T14:23:49;3.6;;;1.3;;
68293;SDS011;55122;51.660;5.824;2022-07-29T14:28:49;3.0;;;1.4;;
68293;SDS011;55122;51.660;5.824;2022-07-29T14:33:49;3.9;;;1.4;;
68293;SDS011;55122;51.660;5.824;2022-07-29T14:38:49;2.2;;;1.2;;
68293;SDS011;55122;51.660;5.824;2022-07-29T14:43:49;2.3;;;1.3;;
68293;SDS011;55122;51.660;5.824;2022-07-29T14:48:49;2.3;;;1.3;;
68293;SDS011;55122;51.660;5.824;2022-07-29T14:53:49;2.8;;;1.3;;
68293;SDS011;55122;51.660;5.824;2022-07-29T14:58:49;4.4;;;1.5;;
68293;SDS011;55122;51.660;5.824;2022-07-29T15:03:49;3.2;;;1.4;;
68293;SDS011;55122;51.660;5.824;2022-07-29T15:08:49;4.3;;;1.2;;
68293;SDS011;55122;51.660;5.824;2022-07-29T15:13:49;2.9;;;1.3;;
68293;SDS011;55122;51.660;5.824;2022-07-29T15:18:49;2.1;;;1.1;;
68293;SDS011;55122;51.660;5.824;2022-07-29T15:23:49;2.5;;;1.3;;
68293;SDS011;55122;51.660;5.824;2022-07-29T15:28:49;1.9;;;1.1;;
68293;SDS011;55122;51.660;5.824;2022-07-29T15:33:49;3.0;;;1.4;;
68293;SDS011;55122;51.660;5.824;2022-07-29T15:38:51;6.2;;;1.3;;
68293;SDS011;55122;51.660;5.824;2022-07-29T15:43:49;3.1;;;1.2;;
68293;SDS011;55122;51.660;5.824;2022-07-29T15:48:49;4.3;;;1.4;;
68293;SDS011;55122;51.660;5.824;2022-07-29T15:53:49;3.6;;;1.4;;
68293;SDS011;55122;51.660;5.824;2022-07-29T15:58:49;3.6;;;1.4;;
68293;SDS011;55122;51.660;5.824;2022-07-29T16:03:49;3.1;;;1.5;;
68293;SDS011;55122;51.660;5.824;2022-07-29T16:08:49;7.1;;;1.5;;
68293;SDS011;55122;51.660;5.824;2022-07-29T16:13:49;3.7;;;1.4;;
68293;SDS011;55122;51.660;5.824;2022-07-29T16:18:49;3.3;;;1.5;;
68293;SDS011;55122;51.660;5.824;2022-07-29T16:23:49;3.7;;;1.7;;
68293;SDS011;55122;51.660;5.824;2022-07-29T16:28:49;3.3;;;1.6;;
68293;SDS011;55122;51.660;5.824;2022-07-29T16:33:49;8.4;;;1.7;;
68293;SDS011;55122;51.660;5.824;2022-07-29T16:38:49;3.6;;;1.5;;
68293;SDS011;55122;51.660;5.824;2022-07-29T16:43:49;3.1;;;1.5;;
68293;SDS011;55122;51.660;5.824;2022-07-29T16:48:49;5.3;;;1.7;;
68293;SDS011;55122;51.660;5.824;2022-07-29T16:53:49;3.9;;;1.7;;
68293;SDS011;55122;51.660;5.824;2022-07-29T16:58:49;5.1;;;1.9;;
68293;SDS011;55122;51.660;5.824;2022-07-29T17:03:49;4.7;;;1.6;;
68293;SDS011;55122;51.660;5.824;2022-07-29T17:08:49;4.1;;;1.7;;
68293;SDS011;55122;51.660;5.824;2022-07-29T17:13:49;3.2;;;1.6;;
68293;SDS011;55122;51.660;5.824;2022-07-29T17:18:49;3.5;;;1.9;;
68293;SDS011;55122;51.660;5.824;2022-07-29T17:23:50;4.4;;;1.6;;
68293;SDS011;55122;51.660;5.824;2022-07-29T17:28:49;4.2;;;1.7;;
68293;SDS011;55122;51.660;5.824;2022-07-29T17:33:49;6.5;;;2.0;;
68293;SDS011;55122;51.660;5.824;2022-07-29T17:38:49;4.2;;;1.7;;
68293;SDS011;55122;51.660;5.824;2022-07-29T17:43:49;4.3;;;1.7;;
68293;SDS011;55122;51.660;5.824;2022-07-29T17:48:49;5.7;;;1.9;;
68293;SDS011;55122;51.660;5.824;2022-07-29T17:53:49;6.4;;;1.8;;
68293;SDS011;55122;51.660;5.824;2022-07-29T17:58:49;5.3;;;1.8;;
68293;SDS011;55122;51.660;5.824;2022-07-29T18:03:49;5.4;;;1.7;;
68293;SDS011;55122;51.660;5.824;2022-07-29T18:08:49;4.1;;;1.7;;
68293;SDS011;55122;51.660;5.824;2022-07-29T18:13:49;4.6;;;1.8;;
68293;SDS011;55122;51.660;5.824;2022-07-29T18:18:49;4.1;;;2.0;;
68293;SDS011;55122;51.660;5.824;2022-07-29T18:23:49;3.7;;;1.8;;
68293;SDS011;55122;51.660;5.824;2022-07-29T18:28:49;5.7;;;1.8;;
68293;SDS011;55122;51.660;5.824;2022-07-29T18:33:49;5.2;;;1.9;;
68293;SDS011;55122;51.660;5.824;2022-07-29T18:38:49;4.3;;;1.9;;
68293;SDS011;55122;51.660;5.824;2022-07-29T18:43:49;7.2;;;1.8;;
68293;SDS011;55122;51.660;5.824;2022-07-29T18:48:49;5.9;;;1.9;;
68293;SDS011;55122;51.660;5.824;2022-07-29T18:53:49;5.5;;;1.7;;
68293;SDS011;55122;51.660;5.824;2022-07-29T18:58:49;4.9;;;1.7;;
68293;SDS011;55122;51.660;5.824;2022-07-29T19:03:49;6.6;;;1.7;;
68293;SDS011;55122;51.660;5.824;2022-07-29T19:08:49;7.4;;;2.0;;
68293;SDS011;55122;51.660;5.824;2022-07-29T19:13:50;7.1;;;2.0;;
68293;SDS011;55122;51.660;5.824;2022-07-29T19:18:50;5.7;;;2.0;;
68293;SDS011;55122;51.660;5.824;2022-07-29T19:28:49;4.6;;;1.9;;
68293;SDS011;55122;51.660;5.824;2022-07-29T19:33:50;6.0;;;1.8;;
68293;SDS011;55122;51.660;5.824;2022-07-29T19:38:50;4.8;;;1.8;;
68293;SDS011;55122;51.660;5.824;2022-07-29T19:43:50;3.6;;;1.8;;
68293;SDS011;55122;51.660;5.824;2022-07-29T19:48:50;3.8;;;1.9;;
68293;SDS011;55122;51.660;5.824;2022-07-29T19:53:50;4.0;;;1.8;;
68293;SDS011;55122;51.660;5.824;2022-07-29T19:58:50;6.3;;;1.9;;
68293;SDS011;55122;51.660;5.824;2022-07-29T20:03:50;4.9;;;1.8;;
68293;SDS011;55122;51.660;5.824;2022-07-29T20:08:50;4.9;;;1.7;;
68293;SDS011;55122;51.660;5.824;2022-07-29T20:13:50;4.7;;;1.9;;
68293;SDS011;55122;51.660;5.824;2022-07-29T20:18:50;5.1;;;1.9;;
68293;SDS011;55122;51.660;5.824;2022-07-29T20:23:50;5.7;;;1.8;;
68293;SDS011;55122;51.660;5.824;2022-07-29T20:28:50;5.6;;;1.7;;
68293;SDS011;55122;51.660;5.824;2022-07-29T20:33:50;5.8;;;1.8;;
68293;SDS011;55122;51.660;5.824;2022-07-29T20:38:50;4.1;;;1.7;;
68293;SDS011;55122;51.660;5.824;2022-07-29T20:43:50;3.5;;;1.5;;
68293;SDS011;55122;51.660;5.824;2022-07-29T20:48:50;3.2;;;1.6;;
68293;SDS011;55122;51.660;5.824;2022-07-29T20:53:50;5.1;;;1.6;;
68293;SDS011;55122;51.660;5.824;2022-07-29T20:58:50;3.1;;;1.5;;
68293;SDS011;55122;51.660;5.824;2022-07-29T21:03:50;4.6;;;1.7;;
68293;SDS011;55122;51.660;5.824;2022-07-29T21:08:50;3.7;;;1.6;;
68293;SDS011;55122;51.660;5.824;2022-07-29T21:13:50;4.0;;;1.5;;
68293;SDS011;55122;51.660;5.824;2022-07-29T21:18:50;3.5;;;1.5;;
68293;SDS011;55122;51.660;5.824;2022-07-29T21:23:50;3.6;;;1.5;;
68293;SDS011;55122;51.660;5.824;2022-07-29T21:28:50;3.9;;;1.5;;
68293;SDS011;55122;51.660;5.824;2022-07-29T21:33:50;3.9;;;1.7;;
68293;SDS011;55122;51.660;5.824;2022-07-29T21:38:50;3.0;;;1.5;;
68293;SDS011;55122;51.660;5.824;2022-07-29T21:43:50;3.9;;;1.6;;
68293;SDS011;55122;51.660;5.824;2022-07-29T21:48:50;4.6;;;1.7;;
68293;SDS011;55122;51.660;5.824;2022-07-29T21:53:50;3.7;;;1.7;;
68293;SDS011;55122;51.660;5.824;2022-07-29T21:58:50;4.8;;;1.6;;
68293;SDS011;55122;51.660;5.824;2022-07-29T22:03:50;4.1;;;1.6;;
68293;SDS011;55122;51.660;5.824;2022-07-29T22:08:50;2.8;;;1.6;;
68293;SDS011;55122;51.660;5.824;2022-07-29T22:13:50;4.4;;;1.8;;
68293;SDS011;55122;51.660;5.824;2022-07-29T22:18:50;2.9;;;1.8;;
68293;SDS011;55122;51.660;5.824;2022-07-29T22:23:50;4.2;;;1.8;;
68293;SDS011;55122;51.660;5.824;2022-07-29T22:28:50;4.6;;;1.8;;
68293;SDS011;55122;51.660;5.824;2022-07-29T22:33:50;3.1;;;1.7;;
68293;SDS011;55122;51.660;5.824;2022-07-29T22:38:50;3.8;;;1.9;;
68293;SDS011;55122;51.660;5.824;2022-07-29T22:43:50;4.0;;;1.5;;
68293;SDS011;55122;51.660;5.824;2022-07-29T22:48:50;3.7;;;1.8;;
68293;SDS011;55122;51.660;5.824;2022-07-29T22:53:50;4.8;;;1.8;;
68293;SDS011;55122;51.660;5.824;2022-07-29T22:58:50;3.3;;;1.7;;
68293;SDS011;55122;51.660;5.824;2022-07-29T23:03:50;3.4;;;1.7;;
68293;SDS011;55122;51.660;5.824;2022-07-29T23:08:50;3.3;;;1.6;;
68293;SDS011;55122;51.660;5.824;2022-07-29T23:13:50;4.6;;;1.8;;
68293;SDS011;55122;51.660;5.824;2022-07-29T23:18:50;6.4;;;1.8;;
68293;SDS011;55122;51.660;5.824;2022-07-29T23:23:51;6.6;;;1.9;;
68293;SDS011;55122;51.660;5.824;2022-07-29T23:28:50;4.3;;;1.8;;
68293;SDS011;55122;51.660;5.824;2022-07-29T23:33:50;7.2;;;1.8;;
68293;SDS011;55122;51.660;5.824;2022-07-29T23:38:50;3.9;;;1.9;;
68293;SDS011;55122;51.660;5.824;2022-07-29T23:43:50;4.8;;;1.8;;
68293;SDS011;55122;51.660;5.824;2022-07-29T23:48:50;2.6;;;1.6;;
68293;SDS011;55122;51.660;5.824;2022-07-29T23:53:50;3.8;;;1.8;;
68293;SDS011;55122;51.660;5.824;2022-07-29T23:58:50;3.9;;;1.7;;
